Time;durP1;ratioP1;P1;durP2;ratioP2;P2;SDS_P1;SDS_P2;PMS_P1;PMS_P2;Temp;Humidity;BMP_temperature;BMP_pressure;BME280_temperature;BME280_humidity;BME280_pressure;Samples;Min_cycle;Max_cycle;Signal;HPM_P1;HPM_P2
2023/08/23 00:01:46;;;;;;;22.95;10.98;;;;;;;23.26;75.81;95092.22;4992869;28;20177;-80
2023/08/23 00:04:11;;;;;;;25.00;11.35;;;;;;;23.25;76.20;95091.41;4991318;28;20614;-80
2023/08/23 00:06:37;;;;;;;16.65;11.30;;;;;;;23.28;75.92;95111.50;4991452;28;20490;-80
2023/08/23 00:09:04;;;;;;;17.25;11.13;;;;;;;23.16;76.33;95097.66;4991438;28;20734;-80
2023/08/23 00:11:29;;;;;;;19.33;10.38;;;;;;;23.24;76.53;95113.97;4983786;28;20188;-80
2023/08/23 00:13:55;;;;;;;18.50;11.25;;;;;;;23.03;76.32;95084.88;4992665;28;20561;-80
2023/08/23 00:16:20;;;;;;;14.90;10.95;;;;;;;23.18;76.60;95106.22;4993049;28;20168;-80
2023/08/23 00:18:46;;;;;;;18.45;11.07;;;;;;;23.17;76.66;95107.34;4993360;28;20242;-80
2023/08/23 00:21:11;;;;;;;19.38;10.82;;;;;;;23.04;76.32;95086.50;4992916;28;20678;-80
2023/08/23 00:23:37;;;;;;;14.75;10.57;;;;;;;22.94;77.03;95109.66;4992950;28;20196;-80
2023/08/23 00:26:03;;;;;;;18.25;10.75;;;;;;;22.91;77.52;95106.78;4993126;28;20246;-80
2023/08/23 00:28:28;;;;;;;18.02;11.23;;;;;;;22.98;77.57;95111.81;4992922;28;20263;-80
2023/08/23 00:30:54;;;;;;;22.13;10.75;;;;;;;22.97;77.46;95105.63;4992639;28;20255;-80
2023/08/23 00:33:20;;;;;;;15.95;10.85;;;;;;;22.91;77.22;95087.97;4993170;28;20185;-80
2023/08/23 00:35:47;;;;;;;15.50;11.13;;;;;;;22.98;77.34;95096.50;4975535;28;20627;-80
2023/08/23 00:38:13;;;;;;;19.10;11.60;;;;;;;22.84;77.77;95087.47;4992863;28;20268;-80
2023/08/23 00:40:38;;;;;;;14.98;11.07;;;;;;;22.91;78.20;95104.88;4993014;28;20203;-80
2023/08/23 00:43:07;;;;;;;16.73;10.63;;;;;;;22.86;77.68;95088.81;4975653;28;20192;-80
2023/08/23 00:45:36;;;;;;;13.73;11.60;;;;;;;22.90;77.97;95095.22;4992966;28;20180;-80
2023/08/23 00:48:06;;;;;;;18.13;12.45;;;;;;;22.90;77.61;95105.97;4975287;28;20267;-80
2023/08/23 00:50:32;;;;;;;16.55;11.32;;;;;;;22.84;77.79;95104.38;4992936;28;20177;-80
2023/08/23 00:52:58;;;;;;;21.48;13.07;;;;;;;22.72;78.45;95081.66;4993030;28;20223;-80
2023/08/23 00:55:24;;;;;;;16.10;12.65;;;;;;;22.82;78.36;95095.84;4992467;28;20181;-80
2023/08/23 00:57:50;;;;;;;20.70;12.43;;;;;;;22.82;78.36;95109.25;4992902;28;20184;-80
2023/08/23 01:00:16;;;;;;;18.60;12.73;;;;;;;22.75;78.17;95089.97;4992674;28;20184;-80
2023/08/23 01:02:41;;;;;;;24.30;16.48;;;;;;;22.82;77.83;95103.88;4992658;28;20195;-80
2023/08/23 01:05:07;;;;;;;22.25;13.02;;;;;;;22.71;77.75;95082.72;4992531;28;20631;-80
2023/08/23 01:07:55;;;;;;;21.60;14.00;;;;;;;22.81;77.85;95102.28;4992518;28;20177;-80
2023/08/23 01:10:39;;;;;;;28.48;17.55;;;;;;;22.79;78.44;95100.94;4992481;28;20185;-80
2023/08/23 01:13:32;;;;;;;20.10;14.32;;;;;;;22.76;78.19;95098.81;4992808;28;20185;-80
2023/08/23 01:15:59;;;;;;;19.83;11.77;;;;;;;22.75;77.99;95103.38;4974899;28;20191;-80
2023/08/23 01:18:27;;;;;;;20.92;13.43;;;;;;;22.59;78.02;95091.13;4992751;28;20529;-79
2023/08/23 01:20:53;;;;;;;17.98;12.52;;;;;;;22.68;78.05;95112.81;4992961;28;20184;-79
2023/08/23 01:23:19;;;;;;;19.77;12.55;;;;;;;22.56;78.32;95099.75;4978773;28;20204;-79
2023/08/23 01:25:52;;;;;;;22.05;11.80;;;;;;;22.59;78.64;95102.66;4996131;28;20565;-80
2023/08/23 01:28:20;;;;;;;35.92;21.15;;;;;;;22.51;78.60;95105.16;4996132;28;20641;-79
2023/08/23 01:30:47;;;;;;;28.10;16.30;;;;;;;22.52;78.90;95102.19;4995893;28;20314;-79
2023/08/23 01:33:12;;;;;;;27.67;14.13;;;;;;;22.57;78.65;95104.06;4995926;28;20660;-80
2023/08/23 01:35:55;;;;;;;26.52;17.13;;;;;;;22.58;78.26;95105.63;4995839;28;20169;-80
2023/08/23 01:38:22;;;;;;;28.98;14.63;;;;;;;22.47;78.31;95077.28;4995859;28;20251;-80
2023/08/23 01:40:48;;;;;;;30.52;18.10;;;;;;;22.55;78.60;95106.22;4987373;28;20644;-79
2023/08/23 01:43:14;;;;;;;26.60;15.40;;;;;;;22.50;78.65;95103.53;4995747;28;20280;-79
2023/08/23 01:45:39;;;;;;;31.90;15.55;;;;;;;22.42;79.12;95091.53;4995948;28;20615;-79
2023/08/23 01:48:05;;;;;;;32.00;16.30;;;;;;;22.47;78.74;95104.91;4996149;28;20173;-80
2023/08/23 01:50:30;;;;;;;29.08;16.30;;;;;;;22.42;78.71;95098.78;4995999;28;20177;-79
2023/08/23 01:52:56;;;;;;;20.42;12.93;;;;;;;22.45;78.75;95103.59;4978403;28;20623;-79
2023/08/23 01:55:23;;;;;;;27.23;13.95;;;;;;;22.42;78.95;95101.44;4995156;28;20161;-79
2023/08/23 01:57:48;;;;;;;26.40;14.35;;;;;;;22.28;78.94;95087.06;4995428;28;20236;-79
2023/08/23 02:00:14;;;;;;;37.20;16.80;;;;;;;22.32;78.92;95101.50;4995777;28;20173;-80
2023/08/23 02:02:39;;;;;;;36.17;19.20;;;;;;;22.27;78.92;95098.88;4995582;28;20708;-79
2023/08/23 02:05:05;;;;;;;30.15;19.77;;;;;;;22.13;78.98;95088.78;4995669;28;20181;-79
2023/08/23 02:07:31;;;;;;;22.10;14.45;;;;;;;22.20;78.71;95099.19;4995647;28;20188;-79
2023/08/23 02:09:56;;;;;;;22.63;12.98;;;;;;;22.20;79.11;95109.91;4995328;28;20176;-80
2023/08/23 02:12:21;;;;;;;16.98;10.93;;;;;;;22.11;78.74;95092.81;4995221;28;20262;-80
2023/08/23 02:14:47;;;;;;;14.23;11.45;;;;;;;22.14;79.06;95103.00;4995518;28;20180;-80
2023/08/23 02:17:12;;;;;;;19.50;13.50;;;;;;;22.13;79.38;95104.06;4995067;28;20280;-80
2023/08/23 02:19:38;;;;;;;17.75;12.30;;;;;;;22.13;79.48;95099.50;4995162;28;20173;-80
2023/08/23 02:22:03;;;;;;;15.30;11.20;;;;;;;22.08;79.95;95104.06;4995043;28;20271;-80
2023/08/23 02:24:29;;;;;;;15.70;10.50;;;;;;;21.75;79.26;95055.41;4995024;28;20268;-79
2023/08/23 02:26:54;;;;;;;18.60;12.02;;;;;;;22.00;79.31;95094.72;4977198;28;20679;-80
2023/08/23 02:29:19;;;;;;;16.70;10.55;;;;;;;21.94;79.79;95095.81;4994759;28;20264;-79
2023/08/23 02:31:45;;;;;;;16.92;11.90;;;;;;;21.89;80.15;95093.13;4994290;28;20224;-79
2023/08/23 02:34:10;;;;;;;25.08;15.60;;;;;;;21.91;80.43;95101.72;4993904;28;20231;-79
2023/08/23 02:36:36;;;;;;;23.25;15.85;;;;;;;22.01;80.24;95098.22;4995046;28;20181;-79
2023/08/23 02:39:01;;;;;;;18.10;13.32;;;;;;;22.03;79.78;95096.88;4995359;28;20232;-79
2023/08/23 02:41:26;;;;;;;22.67;14.35;;;;;;;22.07;79.88;95099.78;4994807;28;20560;-79
2023/08/23 02:43:52;;;;;;;20.17;13.63;;;;;;;21.96;79.46;95072.22;4994391;28;20668;-79
2023/08/23 02:46:17;;;;;;;19.40;13.83;;;;;;;22.09;80.14;95100.31;4994042;28;20423;-79
2023/08/23 02:48:43;;;;;;;20.23;12.90;;;;;;;22.07;79.95;95095.22;4994905;28;20173;-79
2023/08/23 02:51:08;;;;;;;17.35;11.10;;;;;;;22.08;79.83;95106.75;4994913;28;20597;-79
2023/08/23 02:53:33;;;;;;;14.95;10.80;;;;;;;22.00;79.63;95089.38;4995138;28;20268;-80
2023/08/23 02:55:59;;;;;;;18.98;11.93;;;;;;;22.06;79.59;95104.34;4994823;28;20169;-79
2023/08/23 02:58:24;;;;;;;21.77;11.00;;;;;;;22.03;80.27;95093.38;4994328;28;20180;-79
2023/08/23 03:00:50;;;;;;;11.93;9.95;;;;;;;22.00;79.84;95094.72;4994178;28;20207;-78
2023/08/23 03:03:15;;;;;;;14.00;9.95;;;;;;;21.97;80.13;95100.63;4994322;28;20278;-79
2023/08/23 03:05:40;;;;;;;22.25;11.27;;;;;;;21.91;80.27;95091.00;4994248;28;20273;-79
2023/08/23 03:08:06;;;;;;;13.98;10.50;;;;;;;21.75;80.55;95081.41;4993882;28;20205;-79
2023/08/23 03:10:31;;;;;;;16.67;10.65;;;;;;;21.86;80.76;95099.06;4993875;28;20223;-79
2023/08/23 03:12:57;;;;;;;21.45;11.27;;;;;;;21.84;80.68;95095.84;4994024;28;20181;-79
2023/08/23 03:15:22;;;;;;;13.77;11.13;;;;;;;21.83;80.76;95100.41;4993910;28;20180;-79
2023/08/23 03:17:47;;;;;;;18.48;10.82;;;;;;;21.82;80.35;95098.81;4993991;28;20185;-79
2023/08/23 03:20:13;;;;;;;13.75;10.43;;;;;;;21.80;80.10;95090.22;4994334;28;20594;-79
2023/08/23 03:22:38;;;;;;;14.25;9.93;;;;;;;21.80;79.86;95100.16;4976362;28;20189;-79
2023/08/23 03:25:04;;;;;;;16.88;12.30;;;;;;;21.81;79.96;95101.75;4993576;28;20653;-79
2023/08/23 03:27:29;;;;;;;30.70;20.25;;;;;;;21.79;79.48;95103.94;4993480;28;20255;-78
2023/08/23 03:29:55;;;;;;;21.50;13.25;;;;;;;21.75;79.32;95102.88;4993704;28;20285;-78
2023/08/23 03:32:20;;;;;;;22.63;13.98;;;;;;;21.64;79.66;95077.16;4994155;28;20165;-78
2023/08/23 03:34:46;;;;;;;24.50;14.73;;;;;;;21.78;79.50;95094.28;4993895;28;20637;-78
2023/08/23 03:37:11;;;;;;;28.02;17.25;;;;;;;21.81;79.90;95096.41;4993914;28;20189;-79
2023/08/23 03:39:37;;;;;;;16.73;11.35;;;;;;;21.84;79.43;95101.22;4993568;28;20165;-79
2023/08/23 03:42:03;;;;;;;20.80;13.57;;;;;;;21.75;79.87;95090.25;4993610;28;20176;-79
2023/08/23 03:44:29;;;;;;;21.52;14.95;;;;;;;21.83;79.60;95100.41;4984986;28;20184;-79
2023/08/23 03:46:57;;;;;;;26.60;15.90;;;;;;;21.87;79.42;95107.91;4993384;28;20173;-78
2023/08/23 03:49:22;;;;;;;25.20;17.10;;;;;;;21.79;79.32;95093.22;4993296;28;20185;-79
2023/08/23 03:51:48;;;;;;;26.52;15.80;;;;;;;21.79;79.58;95087.84;4993583;28;20187;-79
2023/08/23 03:54:13;;;;;;;33.80;18.63;;;;;;;21.86;79.96;95107.13;4993173;28;20177;-78
2023/08/23 03:56:39;;;;;;;36.30;18.08;;;;;;;21.91;79.59;95106.28;4993150;28;20275;-79
2023/08/23 03:59:04;;;;;;;26.35;16.40;;;;;;;21.92;79.50;95111.38;4993557;28;20177;-79
2023/08/23 04:01:29;;;;;;;19.88;14.32;;;;;;;21.94;79.65;95103.06;4993205;28;20220;-79
2023/08/23 04:03:55;;;;;;;16.67;12.07;;;;;;;21.97;79.23;95103.31;4993296;28;20228;-79
2023/08/23 04:06:20;;;;;;;23.05;12.18;;;;;;;21.97;78.80;95114.03;4992899;28;20188;-79
2023/08/23 04:08:45;;;;;;;19.92;12.18;;;;;;;21.94;79.24;95101.19;4993291;28;20173;-79
2023/08/23 04:11:11;;;;;;;14.50;10.70;;;;;;;22.04;79.47;95097.69;4993184;28;20177;-79
2023/08/23 04:13:37;;;;;;;15.95;10.48;;;;;;;22.16;78.59;95104.28;4993013;28;20193;-79
2023/08/23 04:16:03;;;;;;;18.42;11.07;;;;;;;22.20;78.08;95100.00;4992956;28;20267;-80
2023/08/23 04:18:28;;;;;;;28.63;18.38;;;;;;;22.34;77.48;95105.53;4993339;28;20240;-79
2023/08/23 04:21:01;;;;;;;25.90;11.93;;;;;;;22.42;76.44;95107.63;4992752;28;20687;-79
2023/08/23 04:23:27;;;;;;;31.50;13.02;;;;;;;22.61;76.17;95107.75;4993015;28;20200;-79
2023/08/23 04:25:52;;;;;;;23.88;11.27;;;;;;;22.81;75.64;95098.78;4991803;28;20177;-79
2023/08/23 04:28:18;;;;;;;34.35;11.77;;;;;;;23.14;74.51;95106.00;4992222;28;20185;-79
2023/08/23 04:30:44;;;;;;;21.15;10.40;;;;;;;23.33;72.72;95101.53;4991211;28;20633;-79
2023/08/23 04:33:10;;;;;;;26.90;12.98;;;;;;;23.61;71.58;95107.19;4982128;28;20221;-79
2023/08/23 04:35:36;;;;;;;23.17;12.05;;;;;;;23.97;70.81;95105.66;4972435;28;20684;-79
2023/08/23 04:38:01;;;;;;;28.85;10.70;;;;;;;24.29;69.04;95110.38;4981606;28;20174;-79
2023/08/23 04:40:27;;;;;;;24.38;11.68;;;;;;;24.67;68.13;95118.44;4972822;28;20640;-79
2023/08/23 04:42:52;;;;;;;18.23;10.15;;;;;;;25.06;66.78;95118.13;4980970;28;20194;-78
2023/08/23 04:45:17;;;;;;;20.65;10.27;;;;;;;25.43;65.85;95125.25;4972528;28;20174;-79
2023/08/23 04:47:43;;;;;;;17.77;10.60;;;;;;;25.77;64.44;95119.56;4978250;28;20177;-79
2023/08/23 04:50:08;;;;;;;16.70;10.00;;;;;;;26.13;62.76;95114.22;4983506;28;20268;-79
2023/08/23 04:52:34;;;;;;;19.13;12.25;;;;;;;26.69;61.53;95135.44;4981920;28;20562;-79
2023/08/23 04:54:59;;;;;;;22.40;11.52;;;;;;;27.15;60.39;95132.47;4981446;28;20201;-79
2023/08/23 04:57:25;;;;;;;35.60;18.75;;;;;;;27.70;57.92;95126.72;4982440;28;20177;-79
2023/08/23 04:59:51;;;;;;;35.67;23.02;;;;;;;28.17;56.47;95118.97;4988029;28;20207;-79
2023/08/23 05:02:17;;;;;;;17.50;11.80;;;;;;;28.76;54.24;95123.69;4985634;28;20197;-79
2023/08/23 05:04:42;;;;;;;21.17;10.95;;;;;;;29.14;52.78;95109.47;4985529;28;20177;-79
2023/08/23 05:07:08;;;;;;;20.40;12.98;;;;;;;29.85;51.65;95134.97;4983296;28;20187;-79
2023/08/23 05:09:33;;;;;;;21.02;14.32;;;;;;;30.35;49.69;95135.09;4996510;28;20173;-79
2023/08/23 05:11:59;;;;;;;16.17;10.18;;;;;;;30.81;47.58;95130.63;4986159;28;20256;-78
2023/08/23 05:14:24;;;;;;;16.50;11.38;;;;;;;31.10;46.82;95114.25;4987476;28;20177;-76
2023/08/23 05:16:49;;;;;;;21.02;11.88;;;;;;;31.74;46.20;95123.84;4989586;28;20178;-79
2023/08/23 05:19:15;;;;;;;15.73;11.20;;;;;;;32.16;45.31;95124.47;4985176;28;20269;-79
2023/08/23 05:21:40;;;;;;;12.07;10.02;;;;;;;32.47;44.31;95111.03;4978690;28;20189;-78
2023/08/23 05:24:05;;;;;;;12.88;9.07;;;;;;;33.16;42.97;95125.50;4982645;28;20185;-79
2023/08/23 05:26:31;;;;;;;16.13;10.98;;;;;;;33.71;42.19;95130.16;4985148;28;20204;-78
2023/08/23 05:28:56;;;;;;;13.80;9.35;;;;;;;33.91;41.39;95110.00;4994070;28;20172;-79
2023/08/23 05:31:22;;;;;;;13.02;8.45;;;;;;;34.55;40.37;95136.16;4988123;28;20307;-78
2023/08/23 05:33:47;;;;;;;14.23;10.75;;;;;;;34.62;40.27;95133.56;4995794;28;20340;-76
2023/08/23 05:36:12;;;;;;;18.83;9.40;;;;;;;35.00;39.07;95134.81;4978231;28;20260;-76
2023/08/23 05:38:38;;;;;;;15.25;11.85;;;;;;;35.50;38.53;95134.66;4995515;28;20188;-76
2023/08/23 05:41:03;;;;;;;17.25;10.82;;;;;;;35.91;37.20;95132.25;4995637;28;20647;-76
2023/08/23 05:43:29;;;;;;;15.65;11.45;;;;;;;36.45;36.27;95132.00;4995454;28;20193;-76
2023/08/23 05:45:56;;;;;;;12.82;8.95;;;;;;;36.68;35.33;95120.97;4995781;28;20204;-76
2023/08/23 05:48:22;;;;;;;16.40;9.77;;;;;;;36.77;34.77;95107.78;4977871;28;20181;-76
2023/08/23 05:50:48;;;;;;;14.27;9.38;;;;;;;36.93;34.78;95127.59;4978006;28;20180;-77
2023/08/23 05:53:18;;;;;;;13.57;8.32;;;;;;;37.19;35.07;95131.50;4995481;28;20263;-76
2023/08/23 05:55:49;;;;;;;13.52;9.88;;;;;;;37.58;33.61;95132.72;4995463;28;20165;-77
2023/08/23 05:58:16;;;;;;;22.17;10.55;;;;;;;37.54;33.33;95134.63;4987030;28;20181;-77
2023/08/23 06:00:42;;;;;;;12.68;9.75;;;;;;;36.99;34.07;95120.63;4994061;28;20188;-76
2023/08/23 06:03:08;;;;;;;14.38;10.40;;;;;;;37.25;34.42;95140.97;4993450;28;20189;-77
2023/08/23 06:05:33;;;;;;;13.98;9.27;;;;;;;37.59;34.24;95120.53;4995058;28;20537;-77
2023/08/23 06:07:58;;;;;;;13.68;10.13;;;;;;;37.75;33.73;95136.84;4995531;28;20165;-77
2023/08/23 06:10:24;;;;;;;12.27;9.35;;;;;;;37.47;33.95;95120.00;4995169;28;20169;-77
2023/08/23 06:12:49;;;;;;;11.05;9.65;;;;;;;37.57;33.33;95133.88;4992480;28;20656;-77
2023/08/23 06:15:15;;;;;;;11.20;9.50;;;;;;;37.19;33.42;95131.50;4993743;28;20679;-77
2023/08/23 06:17:41;;;;;;;12.15;8.95;;;;;;;37.02;35.56;95127.31;4992853;28;20178;-77
2023/08/23 06:20:07;;;;;;;13.60;9.57;;;;;;;36.67;34.94;95130.41;4984786;28;20303;-77
2023/08/23 06:22:33;;;;;;;11.85;9.35;;;;;;;36.68;35.15;95126.47;4991980;28;20193;-77
2023/08/23 06:24:58;;;;;;;10.68;9.00;;;;;;;36.15;35.69;95111.91;4979372;28;20174;-77
2023/08/23 06:27:24;;;;;;;13.27;9.90;;;;;;;35.52;37.04;95113.16;4995151;28;20157;-77
2023/08/23 06:29:49;;;;;;;11.98;9.43;;;;;;;35.47;37.73;95120.88;4991727;28;20645;-77
2023/08/23 06:32:14;;;;;;;10.48;9.38;;;;;;;35.32;38.58;95119.81;4989887;28;20307;-77
2023/08/23 06:34:40;;;;;;;13.68;9.55;;;;;;;35.07;39.11;95080.19;4986317;28;20567;-77
2023/08/23 06:37:05;;;;;;;12.45;9.52;;;;;;;35.34;37.71;95106.56;4981170;28;20212;-77
2023/08/23 06:39:30;;;;;;;16.20;9.90;;;;;;;35.29;38.03;95112.31;4989404;28;20596;-78
2023/08/23 06:41:56;;;;;;;12.93;9.00;;;;;;;35.21;39.20;95118.78;4993299;28;20180;-78
2023/08/23 06:44:21;;;;;;;17.30;9.10;;;;;;;35.02;39.11;95125.09;4989975;28;20582;-76
2023/08/23 06:46:47;;;;;;;12.68;9.10;;;;;;;34.96;39.49;95117.50;4990921;28;20182;-77
2023/08/23 06:49:14;;;;;;;14.43;9.55;;;;;;;35.05;39.95;95120.81;4990820;28;20176;-77
2023/08/23 06:51:40;;;;;;;13.40;9.48;;;;;;;34.84;38.55;95117.66;4993357;28;20640;-76
2023/08/23 06:54:05;;;;;;;17.02;12.35;;;;;;;34.74;38.53;95122.53;4993059;28;20173;-74
2023/08/23 06:56:31;;;;;;;14.27;10.02;;;;;;;34.54;40.00;95112.66;4993491;28;20201;-75
2023/08/23 06:58:56;;;;;;;15.90;10.63;;;;;;;34.40;40.28;95117.84;4993150;28;20173;-76
2023/08/23 07:01:21;;;;;;;12.90;9.75;;;;;;;33.78;40.17;95118.63;4993212;28;20267;-75
2023/08/23 07:03:47;;;;;;;22.08;10.50;;;;;;;33.47;42.47;95125.59;4993127;28;20630;-76
2023/08/23 07:06:14;;;;;;;16.23;12.10;;;;;;;33.15;42.51;95126.66;4993649;28;20535;-76
2023/08/23 07:08:43;;;;;;;15.05;10.00;;;;;;;32.86;43.16;95112.22;4993476;28;20256;-76
2023/08/23 07:11:08;;;;;;;13.27;10.10;;;;;;;32.85;43.58;95109.84;4993357;28;20204;-75
2023/08/23 07:13:40;;;;;;;15.02;10.45;;;;;;;32.45;43.67;95105.13;4992025;28;20196;-75
2023/08/23 07:16:06;;;;;;;19.85;11.25;;;;;;;32.29;43.71;95100.72;4990777;28;20180;-74
2023/08/23 07:18:32;;;;;;;14.02;10.55;;;;;;;32.37;45.08;95106.03;4991672;28;20173;-75
2023/08/23 07:20:58;;;;;;;15.60;11.65;;;;;;;32.89;44.88;95110.72;4992421;28;20173;-75
2023/08/23 07:23:24;;;;;;;15.82;10.77;;;;;;;33.34;44.56;95105.78;4992534;28;20189;-75
2023/08/23 07:25:49;;;;;;;15.48;10.13;;;;;;;33.69;42.19;95122.31;4992098;28;20267;-76
2023/08/23 07:28:15;;;;;;;17.63;10.07;;;;;;;33.95;41.92;95112.81;4992114;28;20209;-75
2023/08/23 07:30:45;;;;;;;17.90;10.43;;;;;;;33.80;41.70;95117.16;4974819;28;20637;-75
2023/08/23 07:33:10;;;;;;;14.88;9.85;;;;;;;33.92;41.73;95113.50;4990193;28;20283;-74
2023/08/23 07:35:36;;;;;;;14.65;10.20;;;;;;;33.83;41.13;95091.03;4991348;28;20637;-75
2023/08/23 07:38:02;;;;;;;19.50;11.60;;;;;;;33.64;41.23;95100.69;4990834;28;20244;-74
2023/08/23 07:40:27;;;;;;;14.70;11.02;;;;;;;33.50;40.59;95110.47;4985838;28;20552;-77
2023/08/23 07:42:53;;;;;;;16.52;9.95;;;;;;;33.53;42.38;95102.38;4990144;28;20235;-77
2023/08/23 07:45:18;;;;;;;13.98;10.68;;;;;;;33.40;42.31;95100.84;4990446;28;20181;-75
2023/08/23 07:47:43;;;;;;;14.00;10.23;;;;;;;33.28;42.77;95096.25;4990064;28;20236;-75
2023/08/23 07:50:09;;;;;;;15.20;9.23;;;;;;;33.43;44.59;95074.78;4992791;28;20659;-79
2023/08/23 07:52:36;;;;;;;13.90;9.77;;;;;;;33.92;43.14;95097.91;4992974;28;20173;-79
2023/08/23 07:55:01;;;;;;;13.68;10.02;;;;;;;34.00;40.47;95099.66;4975698;28;20719;-80
2023/08/23 07:57:26;;;;;;;11.68;9.38;;;;;;;34.25;40.64;95086.63;4993428;28;20177;-81
2023/08/23 07:59:55;;;;;;;11.95;8.52;;;;;;;34.38;39.46;95087.31;4976036;28;20188;-81
2023/08/23 08:02:20;;;;;;;14.02;10.52;;;;;;;34.73;40.15;95088.09;4985617;28;20204;-82
2023/08/23 08:04:47;;;;;;;13.35;8.60;;;;;;;34.89;38.35;95098.19;4990862;28;20181;-82
2023/08/23 08:07:12;;;;;;;14.88;8.85;;;;;;;34.80;38.70;95095.66;4988700;28;20232;-82
2023/08/23 08:09:38;;;;;;;12.93;9.93;;;;;;;34.92;38.92;95092.00;4988684;28;20181;-82
2023/08/23 08:12:03;;;;;;;10.90;9.38;;;;;;;34.94;38.34;95092.44;4993027;28;20617;-80
2023/08/23 08:14:29;;;;;;;15.20;8.50;;;;;;;35.00;38.17;95096.47;4992538;28;20227;-80
2023/08/23 08:16:54;;;;;;;20.42;8.65;;;;;;;35.14;38.60;95066.63;4990714;28;20188;-81
2023/08/23 08:19:20;;;;;;;19.17;9.95;;;;;;;35.25;38.17;95083.28;4972271;28;20218;-79
2023/08/23 08:21:45;;;;;;;14.48;8.85;;;;;;;34.67;38.31;95073.09;4974150;28;20722;-79
2023/08/23 08:24:11;;;;;;;12.63;9.13;;;;;;;34.75;39.08;95076.81;4992337;28;20192;-78
2023/08/23 08:26:36;;;;;;;12.60;9.02;;;;;;;34.69;38.47;95075.47;4983548;28;20650;-76
2023/08/23 08:29:02;;;;;;;11.13;8.00;;;;;;;34.86;38.48;95082.47;4983757;28;20178;-77
2023/08/23 08:31:27;;;;;;;8.85;7.72;;;;;;;35.04;37.91;95078.16;4987811;28;20292;-78
2023/08/23 08:33:53;;;;;;;14.05;8.63;;;;;;;35.51;37.73;95086.13;4984111;28;20649;-78
2023/08/23 08:36:18;;;;;;;10.93;7.78;;;;;;;35.33;36.68;95076.78;4981108;28;20188;-81
2023/08/23 08:38:43;;;;;;;17.92;8.48;;;;;;;35.41;36.73;95065.59;4991434;28;20265;-80
2023/08/23 08:41:09;;;;;;;12.57;8.10;;;;;;;35.48;37.08;95087.63;4991201;28;20181;-80
2023/08/23 08:43:36;;;;;;;10.18;8.98;;;;;;;35.47;37.47;95077.84;4992822;28;20209;-78
2023/08/23 08:46:05;;;;;;;15.85;8.25;;;;;;;35.54;37.24;95071.72;4975030;28;20177;-78
2023/08/23 08:48:30;;;;;;;14.55;7.68;;;;;;;35.65;37.63;95071.88;4989518;28;20256;-78
2023/08/23 08:50:58;;;;;;;12.02;7.38;;;;;;;35.75;35.85;95076.78;4988958;28;20179;-77
2023/08/23 08:53:25;;;;;;;13.52;7.45;;;;;;;35.70;35.99;95066.91;4987985;28;20173;-77
2023/08/23 08:55:52;;;;;;;12.48;7.25;;;;;;;35.56;35.93;95081.13;4983738;28;20193;-77
2023/08/23 08:58:20;;;;;;;13.18;8.18;;;;;;;35.28;35.56;95066.16;4986249;28;20180;-78
2023/08/23 09:00:48;;;;;;;11.65;7.78;;;;;;;35.00;37.04;95069.09;4992152;28;20674;-77
2023/08/23 09:03:19;;;;;;;10.13;7.10;;;;;;;35.11;38.24;95070.91;4991815;28;20280;-74
2023/08/23 09:05:49;;;;;;;9.18;7.20;;;;;;;35.07;35.80;95061.81;4991537;28;20185;-79
2023/08/23 09:08:15;;;;;;;6.78;6.07;;;;;;;34.76;35.62;95051.03;4987464;28;20227;-78
2023/08/23 09:10:41;;;;;;;15.05;7.32;;;;;;;34.86;36.39;95050.44;4974738;28;20180;-78
2023/08/23 09:13:06;;;;;;;10.73;6.70;;;;;;;34.70;34.50;95052.41;4991390;28;20166;-78
2023/08/23 09:15:32;;;;;;;9.65;6.05;;;;;;;34.53;34.96;95044.63;4990265;28;20181;-78
2023/08/23 09:17:59;;;;;;;8.25;5.95;;;;;;;34.40;34.93;95039.31;4990347;28;20649;-78
2023/08/23 09:20:26;;;;;;;7.47;5.85;;;;;;;34.77;34.39;95039.69;4990295;28;20177;-78
2023/08/23 09:22:52;;;;;;;8.80;5.70;;;;;;;34.99;33.03;95040.13;4989843;28;20351;-78
2023/08/23 09:25:18;;;;;;;7.57;5.68;;;;;;;35.07;33.65;95036.38;4990427;28;20276;-78
2023/08/23 09:27:44;;;;;;;7.35;6.25;;;;;;;34.57;32.52;95029.91;4990225;28;20648;-78
2023/08/23 09:30:11;;;;;;;9.60;6.15;;;;;;;34.24;33.34;95024.91;4990244;28;20215;-78
2023/08/23 09:32:36;;;;;;;8.15;5.95;;;;;;;34.27;34.18;95026.91;4989988;28;20279;-77
2023/08/23 09:35:17;;;;;;;7.22;6.25;;;;;;;34.40;34.09;95020.16;4990227;28;20640;-77
2023/08/23 09:37:45;;;;;;;5.72;5.18;;;;;;;34.27;32.74;95020.63;4990292;28;20173;-77
2023/08/23 09:40:19;;;;;;;8.60;6.25;;;;;;;34.04;33.41;95010.38;4989983;28;20193;-77
2023/08/23 09:42:46;;;;;;;7.10;5.43;;;;;;;34.06;32.89;95019.00;4992031;28;20200;-77
2023/08/23 09:45:23;;;;;;;6.38;5.72;;;;;;;33.87;33.30;95008.00;4993653;28;20251;-77
2023/08/23 09:47:52;;;;;;;7.07;5.63;;;;;;;33.75;33.01;95004.59;4976613;28;20184;-77
2023/08/23 09:50:19;;;;;;;6.18;5.00;;;;;;;33.52;33.09;94999.75;4993943;28;20185;-76
2023/08/23 09:52:50;;;;;;;6.55;5.50;;;;;;;33.20;33.19;94990.72;4993486;28;20177;-77
2023/08/23 09:55:16;;;;;;;6.80;5.47;;;;;;;33.16;33.71;94986.31;4993501;28;20181;-77
2023/08/23 09:57:43;;;;;;;6.07;5.47;;;;;;;33.16;34.54;94989.03;4993500;28;20186;-77
2023/08/23 10:00:09;;;;;;;10.90;5.50;;;;;;;33.34;34.24;94979.41;4993549;28;20177;-77
2023/08/23 10:02:36;;;;;;;10.32;6.15;;;;;;;33.41;34.09;94995.94;4993366;28;20201;-77
2023/08/23 10:05:04;;;;;;;8.27;5.75;;;;;;;33.47;34.68;94977.38;4993441;28;20195;-77
2023/08/23 10:07:32;;;;;;;8.10;6.15;;;;;;;33.76;33.97;94989.78;4993214;28;20260;-77
2023/08/23 10:09:58;;;;;;;6.18;5.57;;;;;;;33.98;33.92;94976.28;4993366;28;20181;-77
2023/08/23 10:12:23;;;;;;;10.95;5.78;;;;;;;33.97;32.41;94993.81;4993257;28;20182;-77
2023/08/23 10:14:51;;;;;;;6.40;5.57;;;;;;;33.65;32.95;94978.56;4993265;28;20180;-77
2023/08/23 10:17:20;;;;;;;6.75;5.93;;;;;;;33.50;33.26;94984.84;4993104;28;20173;-77
2023/08/23 10:19:55;;;;;;;7.15;4.93;;;;;;;33.04;33.45;94975.47;4993266;28;20173;-77
2023/08/23 10:22:20;;;;;;;5.43;4.72;;;;;;;33.17;32.39;94983.22;4992990;28;20172;-77
2023/08/23 10:24:49;;;;;;;5.63;4.97;;;;;;;33.13;32.36;94974.16;4993055;28;20181;-77
2023/08/23 10:27:16;;;;;;;7.38;4.70;;;;;;;33.09;33.27;94967.81;4992951;28;20260;-77
2023/08/23 10:29:42;;;;;;;6.13;5.22;;;;;;;33.25;32.33;94971.38;4992997;28;20185;-77
2023/08/23 10:32:08;;;;;;;11.63;6.05;;;;;;;33.40;32.91;94963.53;4981713;28;20228;-77
2023/08/23 10:34:40;;;;;;;8.55;5.93;;;;;;;33.60;33.60;94967.91;4992791;28;20191;-77
2023/08/23 10:37:19;;;;;;;6.63;5.72;;;;;;;33.31;34.52;94969.97;4993000;28;20184;-77
2023/08/23 10:39:53;;;;;;;12.02;6.40;;;;;;;33.40;34.97;94969.00;4992810;28;20236;-77
2023/08/23 10:42:19;;;;;;;8.27;6.78;;;;;;;33.49;33.00;94951.28;4992730;28;20177;-77
2023/08/23 10:45:09;;;;;;;11.45;5.85;;;;;;;33.60;33.08;94960.53;4992596;28;20191;-77
2023/08/23 10:47:36;;;;;;;10.27;5.88;;;;;;;33.52;32.41;94963.44;4981797;28;20181;-77
2023/08/23 10:50:03;;;;;;;8.48;5.28;;;;;;;33.60;34.53;94960.53;4992693;28;20177;-77
2023/08/23 10:52:29;;;;;;;6.03;5.35;;;;;;;33.66;31.61;94948.16;4992562;28;20653;-77
2023/08/23 10:54:56;;;;;;;7.28;5.15;;;;;;;33.78;28.18;94958.22;4991387;28;20267;-77
2023/08/23 10:57:21;;;;;;;5.72;4.28;;;;;;;33.70;27.26;94951.00;4992403;28;20192;-77
2023/08/23 10:59:47;;;;;;;5.53;4.82;;;;;;;33.77;28.18;94939.47;4992524;28;20550;-78
2023/08/23 11:02:12;;;;;;;5.85;3.88;;;;;;;34.05;27.44;94945.56;4992401;28;20169;-78
2023/08/23 11:04:38;;;;;;;6.85;4.70;;;;;;;34.19;27.65;94945.06;4992454;28;20176;-78
2023/08/23 11:07:03;;;;;;;5.05;4.57;;;;;;;34.40;28.54;94943.59;4990951;28;20181;-78
2023/08/23 11:09:29;;;;;;;5.68;5.10;;;;;;;34.60;28.02;94944.34;4992370;28;20173;-78
2023/08/23 11:11:54;;;;;;;9.02;4.85;;;;;;;34.61;29.58;94929.53;4992181;28;20614;-78
2023/08/23 11:14:20;;;;;;;9.65;5.32;;;;;;;34.66;31.13;94942.94;4992083;28;20169;-78
2023/08/23 11:16:45;;;;;;;13.13;5.00;;;;;;;34.69;32.52;94933.19;4992324;28;20248;-78
2023/08/23 11:19:12;;;;;;;7.55;5.40;;;;;;;34.37;31.64;94936.09;4992097;28;20178;-78